Broadview Heights, OH (44147)

11:14 PM EST on February 19, 2017 (GMT -0500)
| | Change Station

Elev -9999 ft 0.00 °N, 0.00 °E | Updated 8 minutes ago

Clear
Clear
°F
Feels Like °F
N
Wind Variable Wind from North
Gusts mph

Today
High -- | Low -- °F
--% Chance of Precip.
Yesterday
High -- | Low -- °F
Precip. -- in
Pressure 30.18 in
Visibility 10.0 miles
Clouds Few 25000 ft
Dew Point Not available.
Humidity Not available.
Rainfall --
Snow Depth Not available.
7:15 AM 6:05 PM
Last Quarter, 37% visible
METAR KCLE 200351Z 03003KT 10SM FEW250 06/00 A3017 RMK AO2 SLP218 T00610000
Pressure 30.18 in
Visibility 10.0 miles
Clouds Few 25000 ft
Dew Point Not available.
Humidity Not available.
Rainfall --
Snow Depth Not available.
7:15 AM 6:05 PM
Last Quarter, 37% visible
METAR KCLE 200351Z 03003KT 10SM FEW250 06/00 A3017 RMK AO2 SLP218 T00610000

Get Your Daily Forecast Email!

Thanks for signing up!

Be on the lookout for a verification email in your inbox.

You'll start receiving the daily forecast at 8 AM.

×

10-Day Weather Forecast

Almanac

Astronomy

Feb. 19, 2017 Rise Set
Actual Time
Civil Twilight
Nautical Twilight
Astronomical Twilight
Moon
Length of Visible Light
Length of Day
Tomorrow will be .
, % of the Moon is Illuminated

Today's Extremes

State Highs State Lows

Community

WunderPhotos

Upload Photos

1,962,540 photos uploaded!

WunderBlog® & News

Nearby

Air Quality

  Air Quality AQ Index Pollutant
Not available.

Snow Depth

Station Depth Elevation

Earthquake Activity

City Distance Mag. Time & Date
Minimum magnitude displayed is 2.5.

Coastal Water Temperatures

Place Temperature

Stations

Nearby Weather Stations

Station Location Temp. Windchill Dew Point Humidity Wind Precip. Elev Updated Type
                   

Watches & Warnings

There are currently no watches in effect.